Terminal Aerodrome Forecast
Issued by NWS

Home | Current Version | Previous Version | Text Only | Print | Product List | Glossary On
Versions: 1 2 3 4 5 6 7 8 9 10 11 12
000
FTUS45 KREV 300526
TAFCXP
TAF
KCXP 300526Z 3006/3106 VRB04KT P6SM FEW100 BKN140 BKN200
     FM300900 VRB03KT P6SM FEW140 SCT200
     FM301900 20010KT P6SM SCT080
     FM302100 23011G22KT P6SM SCT080 BKN200
     FM310200 28009G16KT P6SM SCT080 BKN200
     FM310500 30006KT P6SM SCT200=

USA.gov is the U.S. government's official web portal to all federal, state and local government web resources and services.